Time;durP1;ratioP1;P1;durP2;ratioP2;P2;SDS_P1;SDS_P2;PMS_P1;PMS_P2;Temp;Humidity;BMP_temperature;BMP_pressure;BME280_temperature;BME280_humidity;BME280_pressure;Samples;Min_cycle;Max_cycle;Signal;HPM_P1;HPM_P2
2023/01/01 00:02:06;;;;;;;;;;;9.50;99.90;;;;;;5010581;28;20024;-72
2023/01/01 00:04:42;;;;;;;;;;;9.50;99.90;;;;;;5011881;28;19926;-72
2023/01/01 00:07:11;;;;;;;;;;;9.40;99.90;;;;;;5030331;28;19971;-72
2023/01/01 00:12:32;;;;;;;;;;;9.30;99.90;;;;;;5027556;28;19925;-72
2023/01/01 00:14:59;;;;;;;;;;;9.20;99.90;;;;;;5020235;28;20291;-72
2023/01/01 00:17:28;;;;;;;;;;;9.10;99.90;;;;;;4981734;28;19925;-73
2023/01/01 00:19:55;;;;;;;;;;;9.10;99.90;;;;;;5012965;28;19929;-73
2023/01/01 00:22:25;;;;;;;;;;;9.20;99.90;;;;;;4996150;28;19937;-72
2023/01/01 00:24:58;;;;;;;;;;;9.30;99.90;;;;;;5014178;28;19925;-72
2023/01/01 00:27:28;;;;;;;;;;;9.40;99.90;;;;;;5024014;28;19929;-73
2023/01/01 00:29:57;;;;;;;;;;;9.50;99.90;;;;;;5018180;28;19936;-73
2023/01/01 00:32:26;;;;;;;;;;;9.60;99.90;;;;;;4999413;28;20339;-72
2023/01/01 00:34:56;;;;;;;;;;;9.60;99.90;;;;;;5017201;28;20335;-72
2023/01/01 00:37:25;;;;;;;;;;;9.60;99.90;;;;;;5013133;28;19968;-73
2023/01/01 00:39:54;;;;;;;;;;;9.60;99.90;;;;;;4993407;28;19933;-72
2023/01/01 00:42:24;;;;;;;;;;;9.60;99.90;;;;;;4998088;28;19925;-72
2023/01/01 00:44:53;;;;;;;;;;;9.50;99.90;;;;;;5002325;28;20000;-73
2023/01/01 00:47:24;;;;;;;;;;;9.40;99.90;;;;;;5014344;28;19925;-72
2023/01/01 00:49:54;;;;;;;;;;;9.40;99.90;;;;;;5004514;28;20894;-72
2023/01/01 00:52:28;;;;;;;;;;;9.30;99.90;;;;;;5009611;28;20036;-73
2023/01/01 00:55:05;;;;;;;;;;;9.20;99.90;;;;;;5008146;28;19925;-72
2023/01/01 00:57:33;;;;;;;;;;;9.20;99.90;;;;;;5012583;28;19926;-72
2023/01/01 01:00:04;;;;;;;;;;;9.10;99.90;;;;;;5008903;28;19925;-73
2023/01/01 01:02:44;;;;;;;;;;;9.00;99.90;;;;;;5000768;28;19931;-74
2023/01/01 01:05:16;;;;;;;;;;;9.00;99.90;;;;;;4990588;28;20388;-72
2023/01/01 01:07:46;;;;;;;;;;;9.00;99.90;;;;;;5012586;28;19933;-72
2023/01/01 01:10:15;;;;;;;;;;;8.90;99.90;;;;;;4994107;28;20293;-72
2023/01/01 01:12:45;;;;;;;;;;;8.90;99.90;;;;;;5006859;28;20024;-72
2023/01/01 01:15:16;;;;;;;;;;;8.90;99.90;;;;;;5010839;28;19933;-72
2023/01/01 01:17:44;;;;;;;;;;;8.90;99.90;;;;;;5013699;28;19935;-72
2023/01/01 01:20:16;;;;;;;;;;;8.90;99.90;;;;;;5012671;28;19925;-73
2023/01/01 01:22:49;;;;;;;;;;;8.90;99.90;;;;;;5028564;28;20363;-72
2023/01/01 01:25:20;;;;;;;;;;;8.90;99.90;;;;;;5029508;28;20358;-72
2023/01/01 01:27:52;;;;;;;;;;;8.80;99.90;;;;;;5032005;28;20334;-72
2023/01/01 01:30:24;;;;;;;;;;;8.80;99.90;;;;;;5012980;28;19931;-72
2023/01/01 01:32:56;;;;;;;;;;;8.80;99.90;;;;;;5007780;28;19925;-72
2023/01/01 01:35:28;;;;;;;;;;;8.80;99.90;;;;;;5029957;28;20392;-72
2023/01/01 01:38:00;;;;;;;;;;;8.70;99.90;;;;;;5028910;28;19925;-72
2023/01/01 01:40:32;;;;;;;;;;;8.70;99.90;;;;;;5027974;28;20307;-73
2023/01/01 01:43:09;;;;;;;;;;;8.70;99.90;;;;;;5031299;28;19947;-73
2023/01/01 01:45:41;;;;;;;;;;;8.60;99.90;;;;;;5024549;28;19926;-73
2023/01/01 01:48:13;;;;;;;;;;;8.60;99.90;;;;;;5030377;28;19975;-73
2023/01/01 01:50:46;;;;;;;;;;;8.60;99.90;;;;;;5000878;28;20024;-73
2023/01/01 01:53:31;;;;;;;;;;;8.70;99.90;;;;;;5030496;28;19925;-73
2023/01/01 01:56:06;;;;;;;;;;;8.70;99.90;;;;;;5019886;28;20293;-73
2023/01/01 01:58:33;;;;;;;;;;;8.70;99.90;;;;;;5030437;28;19929;-72
2023/01/01 02:01:05;;;;;;;;;;;8.70;99.90;;;;;;5014136;28;19937;-72
2023/01/01 02:03:56;;;;;;;;;;;8.60;99.90;;;;;;5039588;28;19948;-73
2023/01/01 02:06:29;;;;;;;;;;;8.60;99.90;;;;;;5038340;28;19964;-73
2023/01/01 02:09:03;;;;;;;;;;;8.60;99.90;;;;;;5030551;28;19928;-73
2023/01/01 02:11:34;;;;;;;;;;;8.70;99.90;;;;;;5007779;28;19993;-73
2023/01/01 02:14:06;;;;;;;;;;;8.70;99.90;;;;;;5028981;28;19966;-73
2023/01/01 02:16:41;;;;;;;;;;;8.70;99.90;;;;;;5031784;28;19948;-73
2023/01/01 02:19:37;;;;;;;;;;;8.70;99.90;;;;;;5030849;28;20403;-73
2023/01/01 02:22:15;;;;;;;;;;;8.60;99.90;;;;;;5020998;28;19929;-73
2023/01/01 02:24:58;;;;;;;;;;;8.50;99.90;;;;;;5028250;28;20291;-73
2023/01/01 02:27:39;;;;;;;;;;;8.50;99.90;;;;;;5028004;28;19929;-73
2023/01/01 02:30:11;;;;;;;;;;;8.70;99.90;;;;;;5027469;28;20024;-73
2023/01/01 02:32:48;;;;;;;;;;;9.40;99.90;;;;;;5030122;28;20028;-73
2023/01/01 02:35:35;;;;;;;;;;;10.30;99.90;;;;;;5024570;28;19968;-73
2023/01/01 02:38:06;;;;;;;;;;;10.90;99.90;;;;;;5030289;28;20571;-73
2023/01/01 02:40:34;;;;;;;;;;;11.00;99.90;;;;;;5028488;28;20087;-73
2023/01/01 02:43:06;;;;;;;;;;;10.70;99.90;;;;;;5030102;28;19933;-73
2023/01/01 02:45:38;;;;;;;;;;;10.30;99.90;;;;;;5026541;28;19929;-73
2023/01/01 02:48:29;;;;;;;;;;;9.90;99.90;;;;;;5030243;28;20360;-73
2023/01/01 02:51:04;;;;;;;;;;;9.60;99.90;;;;;;5027158;28;20358;-73
2023/01/01 02:53:38;;;;;;;;;;;9.40;99.90;;;;;;5028122;28;19929;-73
2023/01/01 02:56:26;;;;;;;;;;;9.40;99.90;;;;;;5030106;28;20375;-73
2023/01/01 03:02:03;;;;;;;;;;;10.40;99.90;;;;;;5026604;28;19956;-73
2023/01/01 03:04:42;;;;;;;;;;;10.60;99.90;;;;;;5028481;28;19975;-73
2023/01/01 03:07:25;;;;;;;;;;;10.70;99.90;;;;;;5029798;28;20856;-73
2023/01/01 03:10:06;;;;;;;;;;;10.70;99.90;;;;;;5026836;28;20402;-73
2023/01/01 03:12:42;;;;;;;;;;;10.90;99.90;;;;;;5024428;28;20024;-73
2023/01/01 03:15:26;;;;;;;;;;;11.40;99.90;;;;;;5019800;28;19925;-73
2023/01/01 03:18:02;;;;;;;;;;;11.60;99.90;;;;;;5026439;28;19936;-73
2023/01/01 03:20:38;;;;;;;;;;;11.60;99.90;;;;;;5026913;28;19925;-73
2023/01/01 03:23:12;;;;;;;;;;;11.70;99.90;;;;;;5029131;28;19929;-73
2023/01/01 03:25:47;;;;;;;;;;;12.00;99.90;;;;;;5027455;28;20449;-73
2023/01/01 03:28:24;;;;;;;;;;;12.10;99.90;;;;;;5012149;28;20350;-73
2023/01/01 03:30:56;;;;;;;;;;;12.40;99.90;;;;;;5026188;28;19929;-73
2023/01/01 03:33:40;;;;;;;;;;;12.50;99.90;;;;;;5029267;28;20336;-73
2023/01/01 03:36:15;;;;;;;;;;;12.50;99.90;;;;;;5027167;28;20238;-73
2023/01/01 03:38:49;;;;;;;;;;;12.50;99.90;;;;;;5026396;28;20295;-73
2023/01/01 03:41:32;;;;;;;;;;;12.40;99.90;;;;;;5027978;28;19936;-73
2023/01/01 03:44:17;;;;;;;;;;;12.20;99.90;;;;;;5023171;28;19933;-73
2023/01/01 03:46:49;;;;;;;;;;;12.10;99.90;;;;;;5029667;28;19925;-73
2023/01/01 03:49:22;;;;;;;;;;;12.00;99.90;;;;;;5011314;28;19929;-73
2023/01/01 03:52:08;;;;;;;;;;;11.80;99.90;;;;;;5026497;28;19926;-73
2023/01/01 03:54:47;;;;;;;;;;;11.60;99.90;;;;;;5022744;28;19933;-73
2023/01/01 03:57:32;;;;;;;;;;;11.30;99.90;;;;;;5029591;28;19932;-73
2023/01/01 04:00:15;;;;;;;;;;;11.20;99.90;;;;;;5027139;28;19929;-73
2023/01/01 04:02:53;;;;;;;;;;;11.10;99.90;;;;;;5024845;28;19937;-73
2023/01/01 04:05:25;;;;;;;;;;;11.10;99.90;;;;;;5028250;28;19925;-73
2023/01/01 04:08:00;;;;;;;;;;;10.90;99.90;;;;;;5011253;28;19925;-73
2023/01/01 04:10:33;;;;;;;;;;;10.70;99.90;;;;;;5021541;28;19997;-73
2023/01/01 04:13:05;;;;;;;;;;;10.60;99.90;;;;;;5011476;28;19929;-73
2023/01/01 04:15:37;;;;;;;;;;;10.80;99.90;;;;;;5011216;28;19925;-73
2023/01/01 04:18:09;;;;;;;;;;;11.40;99.90;;;;;;5033345;28;19929;-73
2023/01/01 04:20:41;;;;;;;;;;;11.80;99.90;;;;;;5013751;28;20022;-73
2023/01/01 04:23:13;;;;;;;;;;;12.20;99.90;;;;;;5029588;28;19932;-73
2023/01/01 04:25:40;;;;;;;;;;;12.40;99.90;;;;;;5033227;28;20297;-73
2023/01/01 04:28:12;;;;;;;;;;;12.60;99.90;;;;;;5023967;28;20355;-73
2023/01/01 04:30:44;;;;;;;;;;;12.80;99.90;;;;;;5031217;28;19925;-73
2023/01/01 04:33:16;;;;;;;;;;;12.80;99.90;;;;;;5032884;28;19925;-73
2023/01/01 04:35:48;;;;;;;;;;;12.80;99.90;;;;;;5012280;28;19926;-73
2023/01/01 04:38:20;;;;;;;;;;;12.90;99.90;;;;;;5030246;28;19936;-73
2023/01/01 04:40:58;;;;;;;;;;;12.90;99.90;;;;;;5030143;28;20396;-73
2023/01/01 04:43:30;;;;;;;;;;;12.90;99.90;;;;;;5026017;28;19926;-73
2023/01/01 04:46:03;;;;;;;;;;;13.00;99.90;;;;;;5031495;28;19936;-73
2023/01/01 04:48:35;;;;;;;;;;;13.00;99.90;;;;;;5031526;28;19936;-73
2023/01/01 04:51:08;;;;;;;;;;;13.00;99.90;;;;;;5031172;28;19929;-73
2023/01/01 04:53:40;;;;;;;;;;;13.00;99.90;;;;;;5024872;28;19925;-73
2023/01/01 04:56:13;;;;;;;;;;;13.00;99.90;;;;;;5029427;28;19925;-72
2023/01/01 04:58:45;;;;;;;;;;;12.90;99.90;;;;;;5019973;28;19931;-73
2023/01/01 05:01:19;;;;;;;;;;;12.90;99.90;;;;;;5013269;28;19925;-72
2023/01/01 05:03:51;;;;;;;;;;;12.80;99.90;;;;;;5026899;28;20387;-73
2023/01/01 05:06:24;;;;;;;;;;;12.80;99.90;;;;;;5031615;28;19925;-73
2023/01/01 05:08:58;;;;;;;;;;;12.80;99.90;;;;;;5008708;28;19925;-73
2023/01/01 05:11:30;;;;;;;;;;;12.80;99.90;;;;;;5009725;28;20388;-73
2023/01/01 05:14:02;;;;;;;;;;;12.80;99.90;;;;;;5042774;28;19992;-72
2023/01/01 05:16:35;;;;;;;;;;;12.80;99.90;;;;;;5057238;28;19989;-72
2023/01/01 05:19:07;;;;;;;;;;;12.80;99.90;;;;;;5023919;28;20272;-73
2023/01/01 05:21:39;;;;;;;;;;;12.80;99.90;;;;;;5030789;28;19925;-73
2023/01/01 05:24:12;;;;;;;;;;;12.70;99.90;;;;;;5019868;28;19925;-73
2023/01/01 05:26:44;;;;;;;;;;;12.60;99.90;;;;;;5029864;28;19933;-73
2023/01/01 05:29:16;;;;;;;;;;;12.60;99.90;;;;;;5027726;28;20456;-73
2023/01/01 05:31:47;;;;;;;;;;;12.50;99.90;;;;;;5011230;28;19975;-73
2023/01/01 05:34:20;;;;;;;;;;;12.50;99.90;;;;;;5020170;28;20257;-73
2023/01/01 05:36:51;;;;;;;;;;;12.40;99.90;;;;;;5031884;28;19929;-73
2023/01/01 05:39:23;;;;;;;;;;;12.40;99.90;;;;;;5031672;28;19932;-73
2023/01/01 05:41:56;;;;;;;;;;;12.40;99.90;;;;;;5030185;28;20560;-73
2023/01/01 05:44:28;;;;;;;;;;;12.50;99.90;;;;;;5031763;28;19948;-73
2023/01/01 05:46:59;;;;;;;;;;;12.60;99.90;;;;;;5024015;28;19929;-73
2023/01/01 05:49:31;;;;;;;;;;;12.60;99.90;;;;;;5026733;28;19931;-73
2023/01/01 05:52:03;;;;;;;;;;;12.60;99.90;;;;;;5010922;28;19929;-73
2023/01/01 05:54:35;;;;;;;;;;;12.50;99.90;;;;;;5030492;28;19929;-73
2023/01/01 05:57:07;;;;;;;;;;;12.50;99.90;;;;;;5031890;28;19925;-73
2023/01/01 05:59:38;;;;;;;;;;;12.50;99.90;;;;;;5008550;28;19925;-73
2023/01/01 06:02:10;;;;;;;;;;;12.40;99.90;;;;;;5031142;28;19929;-73
2023/01/01 06:04:37;;;;;;;;;;;12.40;99.90;;;;;;5027362;28;20081;-73
2023/01/01 06:07:09;;;;;;;;;;;12.30;99.90;;;;;;5031003;28;20339;-73
2023/01/01 06:09:41;;;;;;;;;;;12.30;99.90;;;;;;5029446;28;19924;-73
2023/01/01 06:12:13;;;;;;;;;;;12.30;99.90;;;;;;5026990;28;19956;-73
2023/01/01 06:14:44;;;;;;;;;;;12.30;99.90;;;;;;5028390;28;19995;-73
2023/01/01 06:17:17;;;;;;;;;;;12.30;99.90;;;;;;5011083;28;19925;-73
2023/01/01 06:19:49;;;;;;;;;;;12.30;99.90;;;;;;5028975;28;20031;-73
2023/01/01 06:22:21;;;;;;;;;;;12.40;99.90;;;;;;5031032;28;19987;-73
2023/01/01 06:24:53;;;;;;;;;;;12.40;99.90;;;;;;5029720;28;19929;-73
2023/01/01 06:27:25;;;;;;;;;;;12.40;99.90;;;;;;5031159;28;19925;-73
2023/01/01 06:29:56;;;;;;;;;;;12.40;99.90;;;;;;5029586;28;19960;-73
2023/01/01 06:32:28;;;;;;;;;;;12.50;99.90;;;;;;5008774;28;20315;-73
2023/01/01 06:35:01;;;;;;;;;;;12.60;99.90;;;;;;5029354;28;19936;-73
2023/01/01 06:37:30;;;;;;;;;;;12.50;99.90;;;;;;5005470;28;19925;-72
2023/01/01 06:40:00;;;;;;;;;;;12.50;99.90;;;;;;5006395;28;19952;-72
2023/01/01 06:42:31;;;;;;;;;;;12.50;99.90;;;;;;5012024;28;20466;-73
2023/01/01 06:45:00;;;;;;;;;;;12.50;99.90;;;;;;4992655;28;19933;-73
2023/01/01 06:47:32;;;;;;;;;;;12.50;99.90;;;;;;5017865;28;19972;-73
2023/01/01 06:50:03;;;;;;;;;;;12.40;99.90;;;;;;5014410;28;19979;-73
2023/01/01 06:52:32;;;;;;;;;;;12.40;99.90;;;;;;5010000;28;19957;-73
2023/01/01 06:55:01;;;;;;;;;;;12.40;99.90;;;;;;5010335;28;19983;-73
2023/01/01 06:57:33;;;;;;;;;;;12.30;99.90;;;;;;5017910;28;19979;-73
2023/01/01 07:00:02;;;;;;;;;;;11.90;99.90;;;;;;4993598;28;20020;-73
2023/01/01 07:02:32;;;;;;;;;;;11.60;99.90;;;;;;5016049;28;19925;-73
2023/01/01 07:05:04;;;;;;;;;;;11.30;99.90;;;;;;5008076;28;20604;-73
2023/01/01 07:07:33;;;;;;;;;;;11.10;99.90;;;;;;5023811;28;19929;-73
2023/01/01 07:10:03;;;;;;;;;;;10.90;99.90;;;;;;5015901;28;20261;-72
2023/01/01 07:12:33;;;;;;;;;;;10.80;99.90;;;;;;5012629;28;19932;-72
2023/01/01 07:15:02;;;;;;;;;;;10.80;99.90;;;;;;5012524;28;19929;-72
2023/01/01 07:17:31;;;;;;;;;;;11.00;99.90;;;;;;5021725;28;19979;-72
2023/01/01 07:20:00;;;;;;;;;;;11.20;99.90;;;;;;5010605;28;20017;-73
2023/01/01 07:22:29;;;;;;;;;;;11.30;99.90;;;;;;5009546;28;19933;-73
2023/01/01 07:24:59;;;;;;;;;;;11.40;99.90;;;;;;5008911;28;19926;-73
2023/01/01 07:27:28;;;;;;;;;;;11.50;99.90;;;;;;5006703;28;19932;-73
2023/01/01 07:29:57;;;;;;;;;;;11.50;99.90;;;;;;4991578;28;19929;-73
2023/01/01 07:32:26;;;;;;;;;;;11.50;99.90;;;;;;5011130;28;19929;-73
2023/01/01 07:34:55;;;;;;;;;;;11.50;99.90;;;;;;5007870;28;19953;-72
2023/01/01 07:37:25;;;;;;;;;;;11.50;99.90;;;;;;5011951;28;20546;-73
2023/01/01 07:39:54;;;;;;;;;;;11.50;99.90;;;;;;5022462;28;19933;-73
2023/01/01 07:42:22;;;;;;;;;;;11.40;99.90;;;;;;5000458;28;19931;-72
2023/01/01 07:44:52;;;;;;;;;;;11.30;99.90;;;;;;4982035;28;19932;-72
2023/01/01 07:47:21;;;;;;;;;;;11.20;99.90;;;;;;5007736;28;19931;-73
2023/01/01 07:49:52;;;;;;;;;;;11.10;99.90;;;;;;5011578;28;19933;-73
2023/01/01 07:52:21;;;;;;;;;;;11.10;99.90;;;;;;5012526;28;19935;-72
2023/01/01 07:54:51;;;;;;;;;;;11.00;99.90;;;;;;5012288;28;20631;-73
2023/01/01 07:57:22;;;;;;;;;;;10.90;99.90;;;;;;4997199;28;19955;-73
2023/01/01 07:59:51;;;;;;;;;;;11.00;99.90;;;;;;5010126;28;20693;-73
2023/01/01 08:02:20;;;;;;;;;;;11.00;99.90;;;;;;4996968;28;19925;-73
2023/01/01 08:04:49;;;;;;;;;;;11.10;99.90;;;;;;5009957;28;19929;-73
2023/01/01 08:07:18;;;;;;;;;;;11.20;99.90;;;;;;4999805;28;19925;-73
2023/01/01 08:09:47;;;;;;;;;;;11.30;99.90;;;;;;5013765;28;20028;-72
2023/01/01 08:12:16;;;;;;;;;;;11.40;99.90;;;;;;4996698;28;19929;-72
2023/01/01 08:14:50;;;;;;;;;;;11.40;99.90;;;;;;5030301;28;19956;-74
2023/01/01 08:17:18;;;;;;;;;;;11.60;99.90;;;;;;5015768;28;20016;-72
2023/01/01 08:19:50;;;;;;;;;;;11.70;99.90;;;;;;5018961;28;20023;-72
2023/01/01 08:22:19;;;;;;;;;;;11.90;99.90;;;;;;5001132;28;19929;-73
2023/01/01 08:24:49;;;;;;;;;;;12.00;99.90;;;;;;5033590;28;19933;-73
2023/01/01 08:27:17;;;;;;;;;;;12.10;99.90;;;;;;5030520;28;19932;-72
2023/01/01 08:29:52;;;;;;;;;;;12.30;99.90;;;;;;5018162;28;19964;-72
2023/01/01 08:32:24;;;;;;;;;;;12.40;99.90;;;;;;5011984;28;19925;-75
2023/01/01 08:34:53;;;;;;;;;;;12.50;99.90;;;;;;5006461;28;20016;-73
2023/01/01 08:37:22;;;;;;;;;;;12.60;99.90;;;;;;5010918;28;19960;-73
2023/01/01 08:40:03;;;;;;;;;;;12.60;99.90;;;;;;4996578;28;19935;-72
2023/01/01 08:42:48;;;;;;;;;;;12.60;99.90;;;;;;5011501;28;20017;-73
2023/01/01 08:45:23;;;;;;;;;;;12.60;99.90;;;;;;5009332;28;19940;-72
2023/01/01 08:47:52;;;;;;;;;;;12.60;99.90;;;;;;5012509;28;19968;-72
2023/01/01 08:50:22;;;;;;;;;;;12.70;99.90;;;;;;4987152;28;19936;-73
2023/01/01 08:52:51;;;;;;;;;;;12.70;99.90;;;;;;5009791;28;19952;-72
2023/01/01 08:55:20;;;;;;;;;;;12.80;99.90;;;;;;5000187;28;20352;-72
2023/01/01 08:57:55;;;;;;;;;;;12.80;99.90;;;;;;5011020;28;19929;-72
2023/01/01 09:00:24;;;;;;;;;;;12.80;99.90;;;;;;4989958;28;20002;-72
2023/01/01 09:02:55;;;;;;;;;;;12.80;99.90;;;;;;4997756;28;19973;-72
2023/01/01 09:05:23;;;;;;;;;;;12.90;99.90;;;;;;4997247;28;19929;-73
2023/01/01 09:08:09;;;;;;;;;;;13.00;99.90;;;;;;5006685;28;19925;-72
2023/01/01 09:11:02;;;;;;;;;;;13.10;99.90;;;;;;5003113;28;19989;-72
2023/01/01 09:13:33;;;;;;;;;;;13.20;99.90;;;;;;5017167;28;20306;-72
2023/01/01 09:16:01;;;;;;;;;;;13.30;99.90;;;;;;4997677;28;19925;-72
2023/01/01 09:18:31;;;;;;;;;;;13.50;99.90;;;;;;4996918;28;19926;-72
2023/01/01 09:21:03;;;;;;;;;;;13.60;99.90;;;;;;5020691;28;19941;-72
2023/01/01 09:23:32;;;;;;;;;;;13.60;99.90;;;;;;5013558;28;20380;-72
2023/01/01 09:26:02;;;;;;;;;;;13.70;99.90;;;;;;5019498;28;20692;-72
2023/01/01 09:28:34;;;;;;;;;;;13.70;99.90;;;;;;4998381;28;19925;-72
2023/01/01 09:31:05;;;;;;;;;;;13.80;99.90;;;;;;5000981;28;20043;-72
2023/01/01 09:33:36;;;;;;;;;;;13.80;99.90;;;;;;4996691;28;20024;-73
2023/01/01 09:36:25;;;;;;;;;;;13.90;99.90;;;;;;4980427;28;19929;-72
2023/01/01 09:38:58;;;;;;;;;;;14.00;99.90;;;;;;5030565;28;19925;-72
2023/01/01 09:41:57;;;;;;;;;;;14.00;99.90;;;;;;5025635;28;20024;-72
2023/01/01 09:44:37;;;;;;;;;;;14.10;99.90;;;;;;5009562;28;19971;-72
2023/01/01 09:47:16;;;;;;;;;;;14.20;99.90;;;;;;5011950;28;19932;-72
2023/01/01 09:49:49;;;;;;;;;;;14.20;99.90;;;;;;5029663;28;19925;-72
2023/01/01 09:52:59;;;;;;;;;;;14.20;99.90;;;;;;5026041;28;19925;-72
2023/01/01 09:55:29;;;;;;;;;;;14.30;99.90;;;;;;4997736;28;19932;-72
2023/01/01 09:58:28;;;;;;;;;;;14.40;99.90;;;;;;5025142;28;20285;-72
2023/01/01 10:01:09;;;;;;;;;;;14.40;99.90;;;;;;5009489;28;19941;-72
2023/01/01 10:03:48;;;;;;;;;;;14.40;99.90;;;;;;4991417;28;19928;-72
2023/01/01 10:06:28;;;;;;;;;;;14.50;99.90;;;;;;5011330;28;19956;-73
2023/01/01 10:09:04;;;;;;;;;;;14.50;99.90;;;;;;5010670;28;20447;-73
2023/01/01 10:11:34;;;;;;;;;;;14.60;99.90;;;;;;5027518;28;20343;-72
2023/01/01 10:14:14;;;;;;;;;;;14.50;99.90;;;;;;4991919;28;19969;-72
2023/01/01 10:16:45;;;;;;;;;;;14.50;99.90;;;;;;5012117;28;19947;-72
2023/01/01 10:19:18;;;;;;;;;;;14.50;99.90;;;;;;5007317;28;19932;-72
2023/01/01 10:21:49;;;;;;;;;;;14.50;99.90;;;;;;5011003;28;20023;-73
2023/01/01 10:24:30;;;;;;;;;;;14.50;99.90;;;;;;4994106;28;19929;-73
2023/01/01 10:27:03;;;;;;;;;;;14.50;99.90;;;;;;5013116;28;20454;-73
2023/01/01 10:29:43;;;;;;;;;;;14.60;99.90;;;;;;5019921;28;19952;-73
2023/01/01 10:32:19;;;;;;;;;;;14.60;99.90;;;;;;5007235;28;19951;-73
2023/01/01 10:34:49;;;;;;;;;;;14.60;99.90;;;;;;5012222;28;19951;-72
2023/01/01 10:37:22;;;;;;;;;;;14.70;99.90;;;;;;5012683;28;19932;-73
2023/01/01 10:39:51;;;;;;;;;;;14.60;99.90;;;;;;4994713;28;19936;-73
2023/01/01 10:42:20;;;;;;;;;;;14.70;99.90;;;;;;5013592;28;19925;-73
2023/01/01 10:44:51;;;;;;;;;;;14.70;99.90;;;;;;5000383;28;20024;-72
2023/01/01 10:47:27;;;;;;;;;;;14.80;99.90;;;;;;5012437;28;19933;-73
2023/01/01 10:49:59;;;;;;;;;;;14.80;99.90;;;;;;5008327;28;19936;-73
2023/01/01 10:52:33;;;;;;;;;;;14.90;99.90;;;;;;5010696;28;19933;-72
2023/01/01 10:55:05;;;;;;;;;;;14.90;99.90;;;;;;5011471;28;19932;-73
2023/01/01 10:57:37;;;;;;;;;;;14.90;99.90;;;;;;5013741;28;19979;-73
2023/01/01 11:00:22;;;;;;;;;;;14.90;99.90;;;;;;5016773;28;19929;-73
2023/01/01 11:03:13;;;;;;;;;;;14.90;99.90;;;;;;5007988;28;19952;-72
2023/01/01 11:06:00;;;;;;;;;;;15.00;99.90;;;;;;4977917;28;19933;-73
2023/01/01 11:08:33;;;;;;;;;;;15.00;99.90;;;;;;4992627;28;19932;-72
2023/01/01 11:11:02;;;;;;;;;;;15.00;99.90;;;;;;5019982;28;19929;-73
2023/01/01 11:13:37;;;;;;;;;;;15.10;99.90;;;;;;5001254;28;19933;-73
2023/01/01 11:16:23;;;;;;;;;;;15.20;99.90;;;;;;5002874;28;19925;-73
2023/01/01 11:19:16;;;;;;;;;;;15.20;99.90;;;;;;5022817;28;19932;-73
2023/01/01 11:21:48;;;;;;;;;;;15.30;99.90;;;;;;5005364;28;19972;-73
2023/01/01 11:24:18;;;;;;;;;;;15.40;99.90;;;;;;5010998;28;19932;-73
2023/01/01 11:26:45;;;;;;;;;;;15.50;99.90;;;;;;5006346;28;19930;-72
2023/01/01 11:29:28;;;;;;;;;;;15.70;99.90;;;;;;4994188;28;19935;-73
2023/01/01 11:32:35;;;;;;;;;;;15.70;99.90;;;;;;5029171;28;19928;-73
2023/01/01 11:35:06;;;;;;;;;;;15.80;99.90;;;;;;5034902;28;19913;-73
2023/01/01 11:37:38;;;;;;;;;;;15.80;99.90;;;;;;5014326;28;19941;-73
2023/01/01 11:40:15;;;;;;;;;;;15.80;99.90;;;;;;5025513;28;19925;-72
2023/01/01 11:42:46;;;;;;;;;;;15.90;99.90;;;;;;4989922;28;19933;-73
2023/01/01 11:45:20;;;;;;;;;;;15.90;99.90;;;;;;5008043;28;19961;-72
2023/01/01 11:47:55;;;;;;;;;;;15.90;99.90;;;;;;5026338;28;19937;-72
2023/01/01 11:50:36;;;;;;;;;;;15.90;99.90;;;;;;5009287;28;19925;-73
2023/01/01 11:53:19;;;;;;;;;;;15.90;99.90;;;;;;5026977;28;20004;-72
2023/01/01 11:55:49;;;;;;;;;;;15.90;99.90;;;;;;5015031;28;19932;-72
2023/01/01 11:58:17;;;;;;;;;;;15.90;99.90;;;;;;5018508;28;20446;-72
2023/01/01 12:00:52;;;;;;;;;;;15.90;99.90;;;;;;5009520;28;20012;-72
2023/01/01 12:03:34;;;;;;;;;;;15.90;99.90;;;;;;4982295;28;20137;-73
2023/01/01 12:06:08;;;;;;;;;;;16.00;99.90;;;;;;5010411;28;19937;-73
2023/01/01 12:08:38;;;;;;;;;;;16.00;99.90;;;;;;5019810;28;19959;-73
2023/01/01 12:11:27;;;;;;;;;;;16.10;99.90;;;;;;5009209;28;19926;-72
2023/01/01 12:14:15;;;;;;;;;;;16.10;99.90;;;;;;5004175;28;19968;-73
2023/01/01 12:16:43;;;;;;;;;;;16.20;99.90;;;;;;5021160;28;19936;-73
2023/01/01 12:19:15;;;;;;;;;;;16.20;99.90;;;;;;5024053;28;20408;-72
2023/01/01 12:21:49;;;;;;;;;;;16.20;99.90;;;;;;5018835;28;20003;-73
2023/01/01 12:24:18;;;;;;;;;;;16.30;99.90;;;;;;5011034;28;20416;-73
2023/01/01 12:26:56;;;;;;;;;;;16.30;99.90;;;;;;5001763;28;20281;-72
2023/01/01 12:29:28;;;;;;;;;;;16.30;99.90;;;;;;5015488;28;19929;-72
2023/01/01 12:32:09;;;;;;;;;;;16.30;99.90;;;;;;5011978;28;19972;-72
2023/01/01 12:34:41;;;;;;;;;;;16.30;99.90;;;;;;5020932;28;19925;-73
2023/01/01 12:37:28;;;;;;;;;;;16.30;99.90;;;;;;5012934;28;19925;-73
2023/01/01 12:40:17;;;;;;;;;;;16.40;99.90;;;;;;5010011;28;19929;-73
2023/01/01 12:43:06;;;;;;;;;;;16.40;99.90;;;;;;5026368;28;19925;-73
2023/01/01 12:45:49;;;;;;;;;;;16.50;99.90;;;;;;4994929;28;19932;-72
2023/01/01 12:48:36;;;;;;;;;;;16.50;99.90;;;;;;5030766;28;19929;-72
2023/01/01 12:51:24;;;;;;;;;;;16.60;99.90;;;;;;5020291;28;19933;-73
2023/01/01 12:53:52;;;;;;;;;;;16.60;99.90;;;;;;5021615;28;20016;-73
2023/01/01 12:56:30;;;;;;;;;;;16.70;99.90;;;;;;5006097;28;19925;-72
2023/01/01 12:59:02;;;;;;;;;;;16.70;99.90;;;;;;5023853;28;19932;-72
2023/01/01 13:01:32;;;;;;;;;;;16.70;99.90;;;;;;5017295;28;19979;-73
2023/01/01 13:04:11;;;;;;;;;;;16.70;99.90;;;;;;5013344;28;19924;-72
2023/01/01 13:06:49;;;;;;;;;;;16.70;99.90;;;;;;4984057;28;20024;-73
2023/01/01 13:09:20;;;;;;;;;;;16.70;99.90;;;;;;5010344;28;19968;-73
2023/01/01 13:11:53;;;;;;;;;;;16.70;99.90;;;;;;5024993;28;19987;-72
2023/01/01 13:14:23;;;;;;;;;;;16.80;99.90;;;;;;5021045;28;19926;-72
2023/01/01 13:16:55;;;;;;;;;;;16.70;99.90;;;;;;4998275;28;19925;-72
2023/01/01 13:19:31;;;;;;;;;;;16.80;99.90;;;;;;5029185;28;20547;-73
2023/01/01 13:22:20;;;;;;;;;;;16.80;99.90;;;;;;5012898;28;19929;-73
2023/01/01 13:25:12;;;;;;;;;;;16.80;99.90;;;;;;5005936;28;19933;-73
2023/01/01 13:28:00;;;;;;;;;;;16.80;99.90;;;;;;5000322;28;20427;-73
2023/01/01 13:30:35;;;;;;;;;;;16.70;99.90;;;;;;5007204;28;19933;-73
2023/01/01 13:33:22;;;;;;;;;;;16.70;99.90;;;;;;5008329;28;19925;-72
2023/01/01 13:36:10;;;;;;;;;;;16.70;99.90;;;;;;5023951;28;20008;-72
2023/01/01 13:38:53;;;;;;;;;;;16.70;99.90;;;;;;5012899;28;19963;-73
2023/01/01 13:41:24;;;;;;;;;;;16.70;99.90;;;;;;5019318;28;20748;-72
2023/01/01 13:44:04;;;;;;;;;;;16.70;99.90;;;;;;5013642;28;19935;-73
2023/01/01 13:46:45;;;;;;;;;;;16.70;99.90;;;;;;5011787;28;19960;-73
2023/01/01 13:49:21;;;;;;;;;;;16.70;99.90;;;;;;5010520;28;20021;-72
2023/01/01 13:52:11;;;;;;;;;;;16.70;99.90;;;;;;5006057;28;19932;-72
2023/01/01 13:54:40;;;;;;;;;;;16.70;99.90;;;;;;5007595;28;20008;-73
2023/01/01 13:57:12;;;;;;;;;;;16.70;99.90;;;;;;5011138;28;20016;-73
2023/01/01 13:59:41;;;;;;;;;;;16.60;99.90;;;;;;5024716;28;19972;-73
2023/01/01 14:02:25;;;;;;;;;;;16.60;99.90;;;;;;5006780;28;19979;-73
2023/01/01 14:09:16;;;;;;;;;;;16.60;99.90;;;;;;5024628;28;19955;-73
2023/01/01 14:11:45;;;;;;;;;;;16.60;99.90;;;;;;5006826;28;19948;-72
2023/01/01 14:14:23;;;;;;;;;;;16.40;99.90;;;;;;5008545;28;19928;-72
2023/01/01 14:16:55;;;;;;;;;;;16.30;99.90;;;;;;4992958;28;19957;-72
2023/01/01 14:19:25;;;;;;;;;;;16.10;99.90;;;;;;4991734;28;20154;-72
2023/01/01 14:21:54;;;;;;;;;;;16.10;99.90;;;;;;5013305;28;19929;-73
2023/01/01 14:24:23;;;;;;;;;;;16.00;99.90;;;;;;5010282;28;19933;-73
2023/01/01 14:26:53;;;;;;;;;;;16.00;99.90;;;;;;5021753;28;20020;-73
2023/01/01 14:29:26;;;;;;;;;;;16.00;99.90;;;;;;5020081;28;19960;-72
2023/01/01 14:31:59;;;;;;;;;;;15.90;99.90;;;;;;5009332;28;19929;-73
2023/01/01 14:37:26;;;;;;;;;;;15.60;99.90;;;;;;5018078;28;20008;-73
2023/01/01 14:40:14;;;;;;;;;;;15.40;99.90;;;;;;5019704;28;19929;-73
2023/01/01 14:42:44;;;;;;;;;;;15.40;99.90;;;;;;5008061;28;19989;-73
2023/01/01 14:45:16;;;;;;;;;;;15.30;99.90;;;;;;5037260;28;19929;-73
2023/01/01 14:47:50;;;;;;;;;;;15.10;99.90;;;;;;5033523;28;19975;-73
2023/01/01 14:50:30;;;;;;;;;;;14.90;99.90;;;;;;4995356;28;19929;-73
2023/01/01 14:53:04;;;;;;;;;;;14.60;99.90;;;;;;5026588;28;20319;-73
2023/01/01 14:55:41;;;;;;;;;;;14.40;99.90;;;;;;5001680;28;19925;-72
2023/01/01 14:58:13;;;;;;;;;;;14.20;99.90;;;;;;5026625;28;19933;-72
2023/01/01 15:00:41;;;;;;;;;;;13.90;99.90;;;;;;5001705;28;19925;-72
2023/01/01 15:03:15;;;;;;;;;;;13.70;99.90;;;;;;4996298;28;20342;-72
2023/01/01 15:05:45;;;;;;;;;;;13.50;99.90;;;;;;4993457;28;20016;-72
2023/01/01 15:08:20;;;;;;;;;;;13.30;99.90;;;;;;4996438;28;19932;-73
2023/01/01 15:10:49;;;;;;;;;;;13.10;99.90;;;;;;5025823;28;19929;-73
2023/01/01 15:13:24;;;;;;;;;;;12.90;99.90;;;;;;5010893;28;19929;-73